Time;durP1;ratioP1;P1;durP2;ratioP2;P2;SDS_P1;SDS_P2;PMS_P1;PMS_P2;Temp;Humidity;BMP_temperature;BMP_pressure;BME280_temperature;BME280_humidity;BME280_pressure;Samples;Min_cycle;Max_cycle;Signal;HPM_P1;HPM_P2
2022/03/07 00:00:43;;;;;;;12.00;5.40;;;;;;;;;;5074974;28;20410;-79
2022/03/07 00:03:09;;;;;;;11.23;4.93;;;;;;;;;;5075103;28;20099;-78
2022/03/07 00:05:35;;;;;;;10.63;4.70;;;;;;;;;;5075018;28;20059;-79
2022/03/07 00:08:01;;;;;;;9.43;5.38;;;;;;;;;;5074730;28;20466;-79
2022/03/07 00:10:27;;;;;;;9.70;5.75;;;;;;;;;;5074824;28;20029;-79
2022/03/07 00:12:53;;;;;;;7.35;4.75;;;;;;;;;;5074741;28;20035;-79
2022/03/07 00:15:19;;;;;;;9.15;5.25;;;;;;;;;;5074643;28;20044;-79
2022/03/07 00:17:45;;;;;;;9.00;5.22;;;;;;;;;;5074735;28;20386;-79
2022/03/07 00:20:12;;;;;;;8.20;4.70;;;;;;;;;;5089147;28;20473;-79
2022/03/07 00:22:38;;;;;;;7.75;5.40;;;;;;;;;;5094742;28;20028;-79
2022/03/07 00:25:04;;;;;;;10.00;5.22;;;;;;;;;;5094808;28;20035;-79
2022/03/07 00:27:30;;;;;;;9.60;5.05;;;;;;;;;;5094885;28;20038;-79
2022/03/07 00:29:56;;;;;;;10.00;5.50;;;;;;;;;;5094717;28;20024;-79
2022/03/07 00:32:22;;;;;;;11.43;5.40;;;;;;;;;;5094595;28;20043;-79
2022/03/07 00:34:48;;;;;;;8.27;4.97;;;;;;;;;;5094719;28;20024;-79
2022/03/07 00:37:14;;;;;;;9.80;5.45;;;;;;;;;;5094608;28;20078;-79
2022/03/07 00:39:40;;;;;;;11.48;5.18;;;;;;;;;;5094813;28;20580;-79
2022/03/07 00:42:06;;;;;;;14.23;5.05;;;;;;;;;;5094599;28;20105;-80
2022/03/07 00:44:32;;;;;;;9.43;5.63;;;;;;;;;;5094359;28;20024;-79
2022/03/07 00:46:58;;;;;;;10.77;5.38;;;;;;;;;;5094351;28;20024;-79
2022/03/07 00:49:24;;;;;;;10.15;5.28;;;;;;;;;;5093938;28;20528;-80
2022/03/07 00:51:50;;;;;;;9.45;4.50;;;;;;;;;;5094401;28;20399;-79
2022/03/07 00:54:17;;;;;;;13.50;5.75;;;;;;;;;;5094227;28;20350;-79
2022/03/07 00:56:43;;;;;;;9.52;5.18;;;;;;;;;;5094445;28;20024;-81
2022/03/07 00:59:09;;;;;;;10.43;5.60;;;;;;;;;;5094225;28;20024;-81
2022/03/07 01:01:35;;;;;;;10.10;5.90;;;;;;;;;;5094113;28;20065;-80
2022/03/07 01:04:01;;;;;;;9.27;5.70;;;;;;;;;;5094119;28;20055;-80
2022/03/07 01:06:27;;;;;;;9.70;5.80;;;;;;;;;;5094356;28;20067;-81
2022/03/07 01:08:53;;;;;;;8.95;5.85;;;;;;;;;;5094054;28;20056;-81
2022/03/07 01:11:19;;;;;;;8.23;5.53;;;;;;;;;;5094233;28;20103;-81
2022/03/07 01:13:45;;;;;;;9.68;5.85;;;;;;;;;;5094054;28;20028;-80
2022/03/07 01:16:11;;;;;;;9.40;5.72;;;;;;;;;;5093597;28;20043;-81
2022/03/07 01:18:37;;;;;;;10.75;5.50;;;;;;;;;;5091951;28;20488;-81
2022/03/07 01:21:03;;;;;;;13.82;6.03;;;;;;;;;;5073199;28;20119;-81
2022/03/07 01:23:30;;;;;;;12.43;6.00;;;;;;;;;;5073392;28;20032;-81
2022/03/07 01:25:56;;;;;;;10.95;5.47;;;;;;;;;;5071855;28;20450;-81
2022/03/07 01:28:22;;;;;;;12.88;5.63;;;;;;;;;;5073572;28;20082;-81
2022/03/07 01:30:49;;;;;;;10.05;5.53;;;;;;;;;;5091998;28;20065;-81
2022/03/07 01:33:15;;;;;;;11.15;6.40;;;;;;;;;;5092964;28;20020;-81
2022/03/07 01:35:41;;;;;;;15.27;5.97;;;;;;;;;;5092948;28;20462;-81
2022/03/07 01:38:07;;;;;;;11.55;5.80;;;;;;;;;;5092844;28;20020;-81
2022/03/07 01:40:33;;;;;;;10.85;5.88;;;;;;;;;;5093145;28;20031;-80
2022/03/07 01:42:59;;;;;;;11.70;5.82;;;;;;;;;;5092640;28;20493;-81
2022/03/07 01:45:25;;;;;;;10.20;5.85;;;;;;;;;;5092674;28;20066;-81
2022/03/07 01:47:51;;;;;;;10.73;6.28;;;;;;;;;;5080542;28;20021;-81
2022/03/07 01:50:19;;;;;;;11.25;5.65;;;;;;;;;;5072237;28;20044;-81
2022/03/07 01:52:47;;;;;;;9.10;5.60;;;;;;;;;;5072435;28;20021;-80
2022/03/07 01:55:14;;;;;;;10.48;5.75;;;;;;;;;;5072328;28;20021;-80
2022/03/07 01:57:41;;;;;;;10.43;5.65;;;;;;;;;;5072287;28;20048;-80
2022/03/07 02:00:09;;;;;;;9.32;6.10;;;;;;;;;;5072190;28;20100;-80
2022/03/07 02:02:35;;;;;;;11.52;5.85;;;;;;;;;;5072335;28;20024;-80
2022/03/07 02:05:01;;;;;;;12.10;6.00;;;;;;;;;;5072295;28;20085;-80
2022/03/07 02:07:27;;;;;;;13.80;5.93;;;;;;;;;;5072242;28;20104;-80
2022/03/07 02:09:53;;;;;;;10.18;5.53;;;;;;;;;;5072044;28;20028;-81
2022/03/07 02:12:19;;;;;;;9.32;5.93;;;;;;;;;;5072218;28;20025;-80
2022/03/07 02:14:45;;;;;;;8.93;5.60;;;;;;;;;;5072047;28;20482;-81
2022/03/07 02:17:11;;;;;;;10.98;5.70;;;;;;;;;;5072092;28;20032;-80
2022/03/07 02:19:37;;;;;;;9.40;6.10;;;;;;;;;;5082867;28;20114;-80
2022/03/07 02:22:04;;;;;;;10.48;6.10;;;;;;;;;;5093267;28;20034;-80
2022/03/07 02:24:30;;;;;;;11.48;6.13;;;;;;;;;;5093116;28;20481;-80
2022/03/07 02:27:03;;;;;;;10.57;6.03;;;;;;;;;;5093454;28;20111;-80
2022/03/07 02:29:29;;;;;;;10.90;5.72;;;;;;;;;;5093304;28;20024;-80
2022/03/07 02:31:56;;;;;;;13.52;6.50;;;;;;;;;;5093062;28;20108;-80
2022/03/07 02:34:22;;;;;;;11.85;5.75;;;;;;;;;;5093085;28;20027;-80
2022/03/07 02:36:48;;;;;;;11.55;5.88;;;;;;;;;;5093147;28;20354;-80
2022/03/07 02:39:14;;;;;;;11.38;5.63;;;;;;;;;;5096088;28;20028;-81
2022/03/07 02:41:40;;;;;;;11.18;5.90;;;;;;;;;;5097305;28;20024;-80
2022/03/07 02:44:07;;;;;;;10.98;5.88;;;;;;;;;;5097166;28;20028;-80
2022/03/07 02:46:34;;;;;;;10.40;5.60;;;;;;;;;;5096650;28;20047;-81
2022/03/07 02:49:00;;;;;;;8.48;5.63;;;;;;;;;;5076439;28;20059;-81
2022/03/07 02:51:27;;;;;;;11.32;6.95;;;;;;;;;;5092178;28;20041;-81
2022/03/07 02:53:53;;;;;;;11.27;5.90;;;;;;;;;;5077038;28;20021;-81
2022/03/07 02:56:19;;;;;;;12.98;6.15;;;;;;;;;;5075230;28;20021;-81
2022/03/07 02:58:45;;;;;;;11.90;6.32;;;;;;;;;;5075462;28;20054;-81
2022/03/07 03:01:11;;;;;;;12.15;6.25;;;;;;;;;;5076382;28;20054;-81
2022/03/07 03:03:37;;;;;;;10.02;5.95;;;;;;;;;;5075001;28;20024;-81
2022/03/07 03:06:03;;;;;;;11.38;6.13;;;;;;;;;;5076476;28;20031;-81
2022/03/07 03:08:29;;;;;;;9.90;6.03;;;;;;;;;;5076355;28;20431;-81
2022/03/07 03:10:57;;;;;;;12.00;6.40;;;;;;;;;;5074732;28;20031;-81
2022/03/07 03:13:23;;;;;;;9.85;6.13;;;;;;;;;;5076272;28;20017;-81
2022/03/07 03:15:50;;;;;;;11.45;6.38;;;;;;;;;;5076365;28;20031;-81
2022/03/07 03:18:16;;;;;;;12.27;6.97;;;;;;;;;;5074706;28;20516;-81
2022/03/07 03:20:44;;;;;;;9.05;6.03;;;;;;;;;;5093576;28;20024;-81
2022/03/07 03:23:10;;;;;;;16.90;6.40;;;;;;;;;;5096734;28;20373;-81
2022/03/07 03:25:36;;;;;;;10.35;5.93;;;;;;;;;;5096245;28;20508;-82
2022/03/07 03:28:02;;;;;;;9.65;6.15;;;;;;;;;;5094858;28;20074;-82
2022/03/07 03:30:29;;;;;;;12.68;6.00;;;;;;;;;;5094914;28;20031;-81
2022/03/07 03:32:55;;;;;;;14.00;6.30;;;;;;;;;;5094815;28;20028;-81
2022/03/07 03:35:21;;;;;;;9.98;5.85;;;;;;;;;;5096264;28;20045;-81
2022/03/07 03:37:47;;;;;;;12.27;6.68;;;;;;;;;;5094691;28;20028;-81
2022/03/07 03:40:13;;;;;;;12.68;6.13;;;;;;;;;;5094800;28;20031;-81
2022/03/07 03:42:40;;;;;;;11.77;6.30;;;;;;;;;;5095936;28;20062;-81
2022/03/07 03:45:08;;;;;;;12.43;6.82;;;;;;;;;;5096254;28;20451;-81
2022/03/07 03:47:34;;;;;;;10.30;6.43;;;;;;;;;;5085147;28;20129;-81
2022/03/07 03:50:00;;;;;;;12.70;7.22;;;;;;;;;;5073091;28;20045;-81
2022/03/07 03:52:26;;;;;;;15.93;7.00;;;;;;;;;;5074348;28;20032;-81
2022/03/07 03:54:55;;;;;;;12.73;6.22;;;;;;;;;;5074742;28;20026;-81
2022/03/07 03:57:21;;;;;;;12.75;7.00;;;;;;;;;;5074660;28;20017;-81
2022/03/07 03:59:47;;;;;;;12.95;6.88;;;;;;;;;;5074386;28;20021;-81
2022/03/07 04:02:13;;;;;;;11.20;5.90;;;;;;;;;;5072763;28;20039;-81
2022/03/07 04:04:39;;;;;;;12.30;7.13;;;;;;;;;;5074078;28;20028;-81
2022/03/07 04:07:06;;;;;;;14.18;7.13;;;;;;;;;;5073143;28;20028;-81
2022/03/07 04:09:32;;;;;;;14.30;7.63;;;;;;;;;;5072977;28;20073;-81
2022/03/07 04:11:58;;;;;;;19.67;7.18;;;;;;;;;;5073934;28;20031;-81
2022/03/07 04:14:24;;;;;;;15.07;7.90;;;;;;;;;;5072829;28;20040;-81
2022/03/07 04:16:50;;;;;;;15.32;7.38;;;;;;;;;;5072688;28;20020;-81
2022/03/07 04:19:16;;;;;;;15.80;7.88;;;;;;;;;;5080598;28;20047;-81
2022/03/07 04:21:43;;;;;;;11.77;6.95;;;;;;;;;;5094023;28;20024;-81
2022/03/07 04:24:10;;;;;;;14.80;8.10;;;;;;;;;;5094079;28;20822;-81
2022/03/07 04:26:36;;;;;;;15.07;7.95;;;;;;;;;;5094165;28;20055;-81
2022/03/07 04:29:07;;;;;;;16.50;8.23;;;;;;;;;;5093928;28;20089;-81
2022/03/07 04:31:34;;;;;;;12.70;7.43;;;;;;;;;;5094452;28;20023;-81
2022/03/07 04:34:00;;;;;;;13.32;7.43;;;;;;;;;;5092570;28;20020;-81
2022/03/07 04:36:26;;;;;;;11.60;7.65;;;;;;;;;;5093899;28;20024;-81
2022/03/07 04:38:52;;;;;;;16.95;9.02;;;;;;;;;;5093962;28;20468;-82
2022/03/07 04:41:18;;;;;;;18.73;8.35;;;;;;;;;;5092441;28;20073;-81
2022/03/07 04:43:45;;;;;;;16.10;8.25;;;;;;;;;;5094320;28;20042;-81
2022/03/07 04:46:11;;;;;;;14.60;8.32;;;;;;;;;;5093836;28;20851;-81
2022/03/07 04:48:37;;;;;;;17.17;8.30;;;;;;;;;;5054688;28;1109163;-81
2022/03/07 04:51:03;;;;;;;15.57;8.50;;;;;;;;;;5094953;28;20488;-81
2022/03/07 04:53:30;;;;;;;17.63;8.90;;;;;;;;;;5093219;28;20020;-81
2022/03/07 04:55:56;;;;;;;16.55;7.95;;;;;;;;;;5093750;28;20438;-81
2022/03/07 04:58:22;;;;;;;18.20;8.18;;;;;;;;;;5093197;28;20034;-81
2022/03/07 05:00:48;;;;;;;19.90;9.95;;;;;;;;;;5093564;28;20111;-81
2022/03/07 05:03:14;;;;;;;17.75;8.75;;;;;;;;;;5094444;28;20077;-81
2022/03/07 05:05:40;;;;;;;15.70;8.18;;;;;;;;;;5094214;28;20422;-82
2022/03/07 05:08:06;;;;;;;21.92;8.73;;;;;;;;;;5094670;28;20134;-81
2022/03/07 05:10:32;;;;;;;20.50;9.20;;;;;;;;;;5094085;28;20436;-81
2022/03/07 05:12:58;;;;;;;16.45;9.35;;;;;;;;;;5094545;28;20519;-82
2022/03/07 05:15:24;;;;;;;16.42;8.50;;;;;;;;;;5094408;28;20379;-81
2022/03/07 05:17:54;;;;;;;15.65;7.70;;;;;;;;;;5094021;28;20466;-81
2022/03/07 05:20:20;;;;;;;15.68;9.30;;;;;;;;;;5078112;28;20013;-81
2022/03/07 05:22:46;;;;;;;17.52;9.15;;;;;;;;;;5080498;28;20028;-81
2022/03/07 05:25:13;;;;;;;15.30;8.60;;;;;;;;;;5093915;28;20024;-81
2022/03/07 05:27:39;;;;;;;14.82;8.40;;;;;;;;;;5093765;28;20024;-81
2022/03/07 05:30:06;;;;;;;16.98;8.90;;;;;;;;;;5092736;28;20146;-81
2022/03/07 05:32:32;;;;;;;17.15;10.05;;;;;;;;;;5092352;28;20403;-81
2022/03/07 05:34:58;;;;;;;12.80;8.23;;;;;;;;;;5093793;28;20055;-81
2022/03/07 05:37:24;;;;;;;19.63;9.80;;;;;;;;;;5093694;28;20040;-81
2022/03/07 05:39:50;;;;;;;15.98;9.48;;;;;;;;;;5092779;28;20016;-81
2022/03/07 05:42:17;;;;;;;20.08;9.65;;;;;;;;;;5093516;28;20055;-81
2022/03/07 05:44:43;;;;;;;25.25;10.45;;;;;;;;;;5093643;28;20445;-81
2022/03/07 05:47:09;;;;;;;15.65;9.32;;;;;;;;;;5093676;28;20107;-81
2022/03/07 05:49:35;;;;;;;24.13;10.98;;;;;;;;;;5091994;28;20048;-81
2022/03/07 05:52:01;;;;;;;22.88;10.85;;;;;;;;;;5093449;28;20056;-81
2022/03/07 05:54:27;;;;;;;19.35;12.13;;;;;;;;;;5093611;28;20027;-81
2022/03/07 05:56:53;;;;;;;19.75;10.57;;;;;;;;;;5092115;28;20024;-81
2022/03/07 05:59:19;;;;;;;22.52;10.63;;;;;;;;;;5093120;28;20021;-81
2022/03/07 06:01:45;;;;;;;20.02;10.32;;;;;;;;;;5093299;28;20111;-81
2022/03/07 06:04:11;;;;;;;17.80;10.20;;;;;;;;;;5093640;28;20024;-81
2022/03/07 06:06:38;;;;;;;18.10;9.90;;;;;;;;;;5093899;28;20023;-81
2022/03/07 06:09:04;;;;;;;20.90;9.52;;;;;;;;;;5091851;28;20024;-82
2022/03/07 06:11:30;;;;;;;16.98;9.32;;;;;;;;;;5092867;28;20431;-81
2022/03/07 06:13:56;;;;;;;19.52;10.05;;;;;;;;;;5093262;28;20031;-81
2022/03/07 06:16:22;;;;;;;23.20;10.85;;;;;;;;;;5092276;28;20434;-81
2022/03/07 06:18:48;;;;;;;19.42;10.50;;;;;;;;;;5093137;28;20067;-81
2022/03/07 06:21:14;;;;;;;19.38;10.75;;;;;;;;;;5093520;28;20343;-81
2022/03/07 06:23:42;;;;;;;19.92;10.80;;;;;;;;;;5092248;28;20035;-81
2022/03/07 06:26:08;;;;;;;15.38;9.90;;;;;;;;;;5092090;28;20023;-81
2022/03/07 06:28:34;;;;;;;16.70;10.27;;;;;;;;;;5093145;28;20331;-81
2022/03/07 06:31:00;;;;;;;21.98;10.55;;;;;;;;;;5092818;28;20107;-81
2022/03/07 06:33:26;;;;;;;20.85;10.55;;;;;;;;;;5091982;28;20030;-81
2022/03/07 06:35:52;;;;;;;23.92;11.52;;;;;;;;;;5093173;28;20024;-81
2022/03/07 06:38:19;;;;;;;22.23;10.75;;;;;;;;;;5092715;28;20111;-81
2022/03/07 06:40:45;;;;;;;21.20;10.60;;;;;;;;;;5093370;28;20028;-81
2022/03/07 06:43:12;;;;;;;19.10;11.82;;;;;;;;;;5092969;28;20035;-81
2022/03/07 06:45:39;;;;;;;22.25;11.73;;;;;;;;;;5093016;28;20478;-81
2022/03/07 06:48:05;;;;;;;23.98;13.10;;;;;;;;;;5079422;28;20430;-81
2022/03/07 06:50:31;;;;;;;26.75;14.30;;;;;;;;;;5071986;28;20059;-82
2022/03/07 06:52:57;;;;;;;21.98;13.13;;;;;;;;;;5073609;28;20031;-82
2022/03/07 06:55:23;;;;;;;24.27;13.25;;;;;;;;;;5075563;28;20028;-81
2022/03/07 06:57:49;;;;;;;24.20;13.45;;;;;;;;;;5083903;28;20043;-81
2022/03/07 07:00:16;;;;;;;22.60;12.90;;;;;;;;;;5086224;28;20031;-81
2022/03/07 07:02:42;;;;;;;21.95;12.82;;;;;;;;;;5084790;28;20459;-81
2022/03/07 07:05:09;;;;;;;22.70;13.07;;;;;;;;;;5091218;28;20071;-83
2022/03/07 07:07:35;;;;;;;20.52;12.35;;;;;;;;;;5092577;28;20050;-81
2022/03/07 07:10:02;;;;;;;22.42;12.85;;;;;;;;;;5090995;28;20024;-81
2022/03/07 07:12:28;;;;;;;23.05;12.90;;;;;;;;;;5092595;28;20025;-81
2022/03/07 07:14:54;;;;;;;21.92;12.48;;;;;;;;;;5092373;28;20032;-82
2022/03/07 07:17:20;;;;;;;25.58;12.75;;;;;;;;;;5091326;28;20024;-81
2022/03/07 07:19:46;;;;;;;18.63;11.07;;;;;;;;;;5081719;28;20064;-81
2022/03/07 07:22:13;;;;;;;20.08;11.77;;;;;;;;;;5072716;28;20075;-81
2022/03/07 07:24:39;;;;;;;22.92;12.18;;;;;;;;;;5091129;28;20130;-81
2022/03/07 07:27:05;;;;;;;19.65;11.88;;;;;;;;;;5096416;28;20020;-81
2022/03/07 07:29:31;;;;;;;17.52;11.13;;;;;;;;;;5096405;28;20389;-81
2022/03/07 07:31:57;;;;;;;18.20;10.75;;;;;;;;;;5096344;28;20032;-81
2022/03/07 07:34:23;;;;;;;18.25;10.65;;;;;;;;;;5096030;28;20423;-81
2022/03/07 07:36:49;;;;;;;20.52;11.90;;;;;;;;;;5096285;28;20020;-81
2022/03/07 07:39:16;;;;;;;25.10;12.65;;;;;;;;;;5094869;28;20119;-81
2022/03/07 07:41:42;;;;;;;20.23;12.52;;;;;;;;;;5096168;28;20032;-81
2022/03/07 07:44:08;;;;;;;19.58;11.65;;;;;;;;;;5094790;28;20446;-81
2022/03/07 07:46:34;;;;;;;17.38;11.27;;;;;;;;;;5096031;28;20024;-81
2022/03/07 07:49:00;;;;;;;19.52;11.20;;;;;;;;;;5095654;28;20028;-81
2022/03/07 07:51:26;;;;;;;18.65;10.77;;;;;;;;;;5094419;28;20101;-81
2022/03/07 07:53:52;;;;;;;17.70;10.27;;;;;;;;;;5095461;28;20024;-77
2022/03/07 07:56:18;;;;;;;19.83;11.25;;;;;;;;;;5094903;28;20031;-80
2022/03/07 07:58:44;;;;;;;16.52;9.98;;;;;;;;;;5093888;28;20374;-79
2022/03/07 08:01:11;;;;;;;16.77;9.60;;;;;;;;;;5095209;28;20047;-80
2022/03/07 08:03:37;;;;;;;18.58;9.85;;;;;;;;;;5095000;28;20115;-79
2022/03/07 08:06:03;;;;;;;20.88;9.63;;;;;;;;;;5094879;28;20092;-78
2022/03/07 08:08:29;;;;;;;18.35;9.35;;;;;;;;;;5093686;28;20063;-80
2022/03/07 08:10:56;;;;;;;12.50;8.77;;;;;;;;;;5095073;28;20064;-81
2022/03/07 08:13:22;;;;;;;15.50;8.68;;;;;;;;;;5095210;28;20024;-81
2022/03/07 08:15:48;;;;;;;14.57;8.48;;;;;;;;;;5095425;28;20051;-81
2022/03/07 08:18:14;;;;;;;14.15;8.55;;;;;;;;;;5095330;28;20035;-81
2022/03/07 08:20:40;;;;;;;15.43;9.10;;;;;;;;;;5095286;28;20024;-81
2022/03/07 08:23:06;;;;;;;13.55;9.32;;;;;;;;;;5095147;28;20024;-81
2022/03/07 08:25:32;;;;;;;16.13;8.57;;;;;;;;;;5095082;28;20462;-81
2022/03/07 08:27:59;;;;;;;12.18;7.68;;;;;;;;;;5095307;28;20034;-81
2022/03/07 08:30:26;;;;;;;14.52;8.40;;;;;;;;;;5093791;28;20073;-82
2022/03/07 08:32:53;;;;;;;16.67;7.55;;;;;;;;;;5094861;28;20391;-79
2022/03/07 08:35:20;;;;;;;17.42;7.57;;;;;;;;;;5093603;28;20051;-80
2022/03/07 08:37:46;;;;;;;10.55;6.70;;;;;;;;;;5094815;28;20035;-81
2022/03/07 08:40:13;;;;;;;14.63;7.65;;;;;;;;;;5094506;28;20107;-79
2022/03/07 08:42:40;;;;;;;12.25;7.70;;;;;;;;;;5093704;28;20489;-80
2022/03/07 08:45:06;;;;;;;15.30;8.27;;;;;;;;;;5093882;28;20568;-79
2022/03/07 08:47:34;;;;;;;18.35;8.93;;;;;;;;;;5090938;28;20032;-79
2022/03/07 08:50:00;;;;;;;18.50;7.80;;;;;;;;;;5093441;28;20044;-79
2022/03/07 08:52:26;;;;;;;14.32;6.70;;;;;;;;;;5093756;28;20026;-80
2022/03/07 08:54:52;;;;;;;11.52;6.30;;;;;;;;;;5094399;28;20152;-81
2022/03/07 08:57:18;;;;;;;10.93;6.40;;;;;;;;;;5094401;28;20036;-80
2022/03/07 08:59:44;;;;;;;10.73;7.03;;;;;;;;;;5093934;28;20067;-80
2022/03/07 09:02:11;;;;;;;11.65;6.90;;;;;;;;;;5093997;28;20020;-79
2022/03/07 09:04:39;;;;;;;11.38;6.15;;;;;;;;;;5093859;28;20347;-80
2022/03/07 09:07:06;;;;;;;10.55;6.38;;;;;;;;;;5080582;28;20543;-80
2022/03/07 09:09:32;;;;;;;11.07;6.10;;;;;;;;;;5093022;28;20097;-78
2022/03/07 09:11:58;;;;;;;14.68;6.10;;;;;;;;;;5093311;28;20357;-80
2022/03/07 09:14:24;;;;;;;7.68;5.30;;;;;;;;;;5093336;28;20036;-80
2022/03/07 09:16:50;;;;;;;11.02;6.72;;;;;;;;;;5093585;28;20016;-79
2022/03/07 09:19:16;;;;;;;8.13;5.57;;;;;;;;;;5093699;28;20406;-80
2022/03/07 09:21:42;;;;;;;9.25;6.10;;;;;;;;;;5093422;28;20100;-80
2022/03/07 09:24:08;;;;;;;12.32;6.88;;;;;;;;;;5091946;28;20028;-80
2022/03/07 09:26:34;;;;;;;10.73;5.70;;;;;;;;;;5093607;28;20032;-80
2022/03/07 09:29:00;;;;;;;8.60;5.38;;;;;;;;;;5093088;28;20031;-81
2022/03/07 09:31:26;;;;;;;10.43;5.65;;;;;;;;;;5092904;28;20024;-80
2022/03/07 09:33:52;;;;;;;10.63;5.57;;;;;;;;;;5093024;28;20047;-81
2022/03/07 09:36:18;;;;;;;9.85;5.70;;;;;;;;;;5093676;28;20024;-81
2022/03/07 09:38:45;;;;;;;7.18;4.90;;;;;;;;;;5090476;28;20016;-80
2022/03/07 09:41:11;;;;;;;11.10;5.65;;;;;;;;;;5093387;28;20046;-81
2022/03/07 09:43:37;;;;;;;9.50;4.60;;;;;;;;;;5093121;28;20478;-81
2022/03/07 09:46:03;;;;;;;10.82;4.63;;;;;;;;;;5093346;28;20058;-82
2022/03/07 09:48:29;;;;;;;8.70;4.78;;;;;;;;;;5075928;28;20558;-82
2022/03/07 09:50:56;;;;;;;9.45;5.00;;;;;;;;;;5091633;28;20032;-81
2022/03/07 09:53:22;;;;;;;7.72;3.90;;;;;;;;;;5093069;28;20185;-81
2022/03/07 09:55:48;;;;;;;5.97;4.07;;;;;;;;;;5093294;28;20065;-81
2022/03/07 09:58:14;;;;;;;6.97;4.00;;;;;;;;;;5093265;28;20088;-81
2022/03/07 10:00:41;;;;;;;6.72;4.00;;;;;;;;;;5091849;28;20046;-81
2022/03/07 10:03:09;;;;;;;8.70;4.15;;;;;;;;;;5093049;28;20107;-81
2022/03/07 10:05:39;;;;;;;6.90;4.60;;;;;;;;;;5093050;28;20016;-82
2022/03/07 10:08:06;;;;;;;7.20;3.90;;;;;;;;;;5092988;28;20024;-81
2022/03/07 10:10:36;;;;;;;7.15;4.30;;;;;;;;;;5093112;28;20059;-81
2022/03/07 10:13:06;;;;;;;10.65;3.95;;;;;;;;;;5092631;28;20415;-81
2022/03/07 10:15:32;;;;;;;7.53;3.63;;;;;;;;;;5092623;28;20020;-81
2022/03/07 10:17:58;;;;;;;9.10;4.38;;;;;;;;;;5092768;28;20652;-81
2022/03/07 10:20:25;;;;;;;7.38;3.47;;;;;;;;;;5091474;28;20035;-81
2022/03/07 10:22:53;;;;;;;7.10;3.92;;;;;;;;;;5092725;28;20024;-81
2022/03/07 10:25:26;;;;;;;5.55;3.97;;;;;;;;;;5091280;28;20103;-81
2022/03/07 10:27:52;;;;;;;6.05;3.60;;;;;;;;;;5090049;28;20038;-81
2022/03/07 10:30:20;;;;;;;5.32;3.33;;;;;;;;;;5092850;28;20028;-81
2022/03/07 10:32:56;;;;;;;7.55;3.83;;;;;;;;;;5092874;28;20450;-81
2022/03/07 10:35:25;;;;;;;5.00;3.22;;;;;;;;;;5092602;28;20043;-81
2022/03/07 10:37:55;;;;;;;6.38;3.33;;;;;;;;;;5093027;28;20033;-81
2022/03/07 10:40:22;;;;;;;5.03;3.42;;;;;;;;;;5092680;28;20022;-81
2022/03/07 10:42:48;;;;;;;6.22;3.20;;;;;;;;;;5092372;28;20032;-81
2022/03/07 10:45:15;;;;;;;4.95;2.95;;;;;;;;;;5092541;28;20423;-81
2022/03/07 10:47:41;;;;;;;4.60;3.22;;;;;;;;;;5097528;28;20030;-81
2022/03/07 10:50:07;;;;;;;8.60;3.60;;;;;;;;;;5092442;28;20048;-81
2022/03/07 10:52:35;;;;;;;6.18;3.22;;;;;;;;;;5092587;28;20024;-82
2022/03/07 10:55:01;;;;;;;7.18;3.30;;;;;;;;;;5092484;28;20026;-80
2022/03/07 10:57:27;;;;;;;5.90;3.03;;;;;;;;;;5092296;28;20028;-81
2022/03/07 10:59:53;;;;;;;7.15;3.08;;;;;;;;;;5095022;28;20511;-81
2022/03/07 11:02:19;;;;;;;5.32;3.20;;;;;;;;;;5096569;28;20099;-81
2022/03/07 11:04:46;;;;;;;6.25;3.53;;;;;;;;;;5096455;28;20032;-80
2022/03/07 11:07:13;;;;;;;5.47;3.45;;;;;;;;;;5096587;28;20032;-80
2022/03/07 11:09:40;;;;;;;5.38;3.30;;;;;;;;;;5096299;28;20020;-80
2022/03/07 11:12:10;;;;;;;5.65;3.10;;;;;;;;;;5096259;28;20130;-80
2022/03/07 11:14:36;;;;;;;4.75;2.90;;;;;;;;;;5095685;28;20035;-80
2022/03/07 11:17:02;;;;;;;4.60;3.28;;;;;;;;;;5096041;28;20062;-80
2022/03/07 11:19:28;;;;;;;5.20;3.03;;;;;;;;;;5095508;28;20024;-80
2022/03/07 11:21:56;;;;;;;4.68;2.92;;;;;;;;;;5096127;28;20492;-81
2022/03/07 11:24:23;;;;;;;6.35;3.33;;;;;;;;;;5095530;28;20039;-80
2022/03/07 11:26:50;;;;;;;5.95;3.22;;;;;;;;;;5095509;28;20028;-80
2022/03/07 11:29:17;;;;;;;5.00;3.13;;;;;;;;;;5095379;28;20485;-80
2022/03/07 11:31:43;;;;;;;6.05;3.45;;;;;;;;;;5094054;28;20016;-81
2022/03/07 11:34:10;;;;;;;7.35;3.70;;;;;;;;;;5095782;28;20105;-80
2022/03/07 11:36:41;;;;;;;5.90;3.47;;;;;;;;;;5095162;28;20043;-80
2022/03/07 11:39:08;;;;;;;8.90;3.57;;;;;;;;;;5090066;28;20024;-80
2022/03/07 11:41:36;;;;;;;8.40;4.43;;;;;;;;;;5095301;28;20032;-80
2022/03/07 11:44:02;;;;;;;11.05;4.63;;;;;;;;;;5095095;28;20050;-80
2022/03/07 11:46:28;;;;;;;9.52;4.60;;;;;;;;;;5094597;28;20028;-81
2022/03/07 11:48:54;;;;;;;6.22;4.22;;;;;;;;;;5094744;28;20486;-80
2022/03/07 11:51:21;;;;;;;7.30;4.28;;;;;;;;;;5094555;28;20048;-78
2022/03/07 11:53:48;;;;;;;11.95;4.53;;;;;;;;;;5094651;28;20699;-78
2022/03/07 11:56:18;;;;;;;13.35;5.35;;;;;;;;;;5093779;28;20030;-78
2022/03/07 11:58:49;;;;;;;8.40;5.38;;;;;;;;;;5094491;28;20024;-79
2022/03/07 12:01:15;;;;;;;6.50;4.70;;;;;;;;;;5093995;28;20028;-78
2022/03/07 12:03:41;;;;;;;9.48;5.45;;;;;;;;;;5094043;28;20072;-78
2022/03/07 12:06:11;;;;;;;6.55;5.03;;;;;;;;;;5094193;28;20063;-78
2022/03/07 12:08:47;;;;;;;8.75;4.80;;;;;;;;;;5094163;28;20047;-79
2022/03/07 12:11:24;;;;;;;10.07;5.20;;;;;;;;;;5093846;28;20028;-78
2022/03/07 12:13:50;;;;;;;8.30;5.05;;;;;;;;;;5094267;28;20028;-78
2022/03/07 12:16:26;;;;;;;7.72;4.40;;;;;;;;;;5094271;28;20032;-78
2022/03/07 12:19:06;;;;;;;6.65;5.00;;;;;;;;;;5090723;28;20062;-78
2022/03/07 12:21:32;;;;;;;8.95;5.18;;;;;;;;;;5073994;28;20024;-79
2022/03/07 12:23:58;;;;;;;7.43;5.13;;;;;;;;;;5073816;28;20033;-79
2022/03/07 12:26:24;;;;;;;10.38;5.28;;;;;;;;;;5073749;28;20028;-78
2022/03/07 12:28:50;;;;;;;8.98;5.38;;;;;;;;;;5073732;28;20031;-79
2022/03/07 12:31:16;;;;;;;8.25;5.20;;;;;;;;;;5073596;28;20025;-78
2022/03/07 12:33:43;;;;;;;11.70;6.10;;;;;;;;;;5073730;28;20558;-78
2022/03/07 12:36:12;;;;;;;12.82;5.68;;;;;;;;;;5073560;28;20016;-78
2022/03/07 12:39:10;;;;;;;8.63;5.28;;;;;;;;;;5073663;28;20094;-78
2022/03/07 12:41:37;;;;;;;8.60;4.85;;;;;;;;;;5011477;28;20042;-78
2022/03/07 12:44:04;;;;;;;9.02;4.65;;;;;;;;;;5011556;28;20113;-79
2022/03/07 12:46:30;;;;;;;9.52;4.97;;;;;;;;;;5011184;28;20054;-78
2022/03/07 12:48:57;;;;;;;8.25;5.00;;;;;;;;;;5011321;28;20444;-78
2022/03/07 12:51:23;;;;;;;10.68;5.70;;;;;;;;;;5017001;28;20041;-81
2022/03/07 12:53:52;;;;;;;6.60;4.65;;;;;;;;;;5032023;28;20384;-82
2022/03/07 12:56:19;;;;;;;7.05;4.85;;;;;;;;;;5016162;28;20021;-82
2022/03/07 12:58:46;;;;;;;11.07;4.88;;;;;;;;;;5014990;28;20029;-81
2022/03/07 13:01:12;;;;;;;12.95;4.30;;;;;;;;;;5031594;28;20059;-80
2022/03/07 13:03:38;;;;;;;8.57;4.25;;;;;;;;;;5031657;28;20427;-81
2022/03/07 13:06:04;;;;;;;8.55;4.45;;;;;;;;;;5035000;28;20041;-81
2022/03/07 13:08:30;;;;;;;6.90;4.35;;;;;;;;;;5014461;28;20484;-81
2022/03/07 13:10:56;;;;;;;6.82;3.88;;;;;;;;;;5031192;28;20201;-81
2022/03/07 13:13:22;;;;;;;7.13;4.13;;;;;;;;;;5031256;28;20168;-81
2022/03/07 13:15:48;;;;;;;6.28;4.38;;;;;;;;;;5030769;28;20032;-81
2022/03/07 13:18:15;;;;;;;5.63;3.67;;;;;;;;;;5086197;28;20043;-81
2022/03/07 13:20:42;;;;;;;6.20;3.42;;;;;;;;;;5093290;28;20389;-80
2022/03/07 13:23:08;;;;;;;7.30;3.53;;;;;;;;;;5091302;28;20569;-81
2022/03/07 13:25:43;;;;;;;6.07;3.70;;;;;;;;;;5091799;28;20478;-81
2022/03/07 13:28:09;;;;;;;7.28;3.70;;;;;;;;;;5091424;28;20099;-81
2022/03/07 13:30:36;;;;;;;4.63;2.97;;;;;;;;;;5091594;28;20100;-81
2022/03/07 13:33:02;;;;;;;5.38;3.15;;;;;;;;;;5093283;28;20463;-81
2022/03/07 13:35:28;;;;;;;6.30;3.00;;;;;;;;;;5093309;28;20044;-81
2022/03/07 13:37:55;;;;;;;5.60;3.60;;;;;;;;;;5093496;28;20378;-80
2022/03/07 13:40:24;;;;;;;6.20;2.90;;;;;;;;;;5093194;28;20048;-81
2022/03/07 13:42:51;;;;;;;7.65;2.85;;;;;;;;;;5093089;28;20461;-81
2022/03/07 13:45:19;;;;;;;7.22;3.60;;;;;;;;;;5091692;28;20020;-81
2022/03/07 13:47:46;;;;;;;6.10;3.28;;;;;;;;;;5087395;28;20024;-81
2022/03/07 13:50:15;;;;;;;4.63;2.88;;;;;;;;;;5093152;28;20098;-81
2022/03/07 13:52:48;;;;;;;5.07;3.17;;;;;;;;;;5092782;28;20016;-81
2022/03/07 13:55:19;;;;;;;4.32;2.72;;;;;;;;;;5093006;28;20020;-81
2022/03/07 13:57:52;;;;;;;4.38;2.72;;;;;;;;;;5092820;28;20020;-81
2022/03/07 14:00:24;;;;;;;7.63;3.13;;;;;;;;;;5092335;28;20036;-81
2022/03/07 14:02:51;;;;;;;6.43;3.22;;;;;;;;;;5093062;28;20028;-81
2022/03/07 14:05:18;;;;;;;4.55;3.05;;;;;;;;;;5092713;28;20032;-81
2022/03/07 14:07:49;;;;;;;4.60;3.10;;;;;;;;;;5092425;28;20016;-81
2022/03/07 14:10:16;;;;;;;5.40;3.00;;;;;;;;;;5092612;28;20028;-81
2022/03/07 14:12:43;;;;;;;5.05;2.80;;;;;;;;;;5092267;28;20054;-82
2022/03/07 14:15:10;;;;;;;5.30;2.90;;;;;;;;;;5090922;28;20024;-81
2022/03/07 14:17:37;;;;;;;6.95;3.50;;;;;;;;;;5091589;28;20044;-81
2022/03/07 14:20:05;;;;;;;5.38;3.00;;;;;;;;;;5091970;28;20091;-80
2022/03/07 14:22:31;;;;;;;7.60;3.03;;;;;;;;;;5092561;28;20024;-81
2022/03/07 14:24:58;;;;;;;4.43;2.50;;;;;;;;;;5092483;28;20141;-81
2022/03/07 14:27:28;;;;;;;3.10;2.50;;;;;;;;;;5092615;28;20334;-81
2022/03/07 14:29:55;;;;;;;5.95;2.72;;;;;;;;;;5092599;28;20380;-80